createdAt,value
2022-09-04T00:01:28.240Z,99287.97
2022-09-04T00:04:27.327Z,99287.97
2022-09-04T00:07:06.570Z,99305.16
2022-09-04T00:09:59.034Z,99302.59
2022-09-04T00:12:34.126Z,99290.69
2022-09-04T00:15:17.794Z,99277.03
2022-09-04T00:17:53.021Z,99311.25
2022-09-04T00:20:23.120Z,99312.13
2022-09-04T00:22:54.132Z,99294.28
2022-09-04T00:28:58.937Z,99300.50
2022-09-04T00:31:29.270Z,99299.50
2022-09-04T00:34:02.928Z,99315.78
2022-09-04T00:36:30.117Z,99303.81
2022-09-04T00:39:13.926Z,99284.16
2022-09-04T00:41:50.313Z,99314.06
2022-09-04T00:44:36.022Z,99303.91
2022-09-04T00:47:26.585Z,99291.13
2022-09-04T00:50:01.289Z,99308.03
2022-09-04T00:52:58.467Z,99314.97
2022-09-04T00:55:48.004Z,99313.44
2022-09-04T00:58:18.188Z,99315.09
2022-09-04T01:00:46.257Z,99311.75
2022-09-04T01:03:27.514Z,99300.69
2022-09-04T01:06:04.367Z,99299.13
2022-09-04T01:08:56.710Z,99314.34
2022-09-04T01:11:30.033Z,99319.56
2022-09-04T01:14:11.089Z,99293.25
2022-09-04T01:16:42.465Z,99299.19
2022-09-04T01:19:47.719Z,99331.81
2022-09-04T01:22:15.127Z,99307.63
2022-09-04T01:25:03.478Z,99318.84
2022-09-04T01:27:37.700Z,99298.38
2022-09-04T01:30:22.977Z,99326.66
2022-09-04T01:32:53.119Z,99321.44
2022-09-04T01:35:44.466Z,99320.72
2022-09-04T01:38:33.230Z,99321.50
2022-09-04T01:41:07.594Z,99328.56
2022-09-04T01:43:34.982Z,99318.34
2022-09-04T01:46:24.285Z,99330.34
2022-09-04T01:49:08.048Z,99331.22
2022-09-04T01:52:03.039Z,99318.28
2022-09-04T01:57:51.835Z,99320.34
2022-09-04T02:00:22.321Z,99297.25
2022-09-04T02:03:02.462Z,99316.13
2022-09-04T02:05:49.793Z,99298.25
2022-09-04T02:08:41.806Z,99331.53
2022-09-04T02:11:29.457Z,99326.22
2022-09-04T02:14:55.488Z,99329.00
2022-09-04T02:17:34.138Z,99324.88
2022-09-04T02:20:04.682Z,99329.00
2022-09-04T02:22:35.038Z,99333.25
2022-09-04T02:25:08.451Z,99337.63
2022-09-04T02:27:48.782Z,99321.41
2022-09-04T02:30:19.460Z,99310.31
2022-09-04T02:33:12.426Z,99326.31
2022-09-04T02:35:43.243Z,99317.16
2022-09-04T02:38:28.230Z,99330.84
2022-09-04T02:41:01.416Z,99326.44
2022-09-04T02:43:54.845Z,99327.44
2022-09-04T02:46:28.357Z,99320.53
2022-09-04T02:49:13.431Z,99307.97
2022-09-04T02:52:07.467Z,99331.00
2022-09-04T02:54:58.953Z,99324.00
2022-09-04T02:57:47.989Z,99316.38
2022-09-04T03:00:21.640Z,99309.47
2022-09-04T03:03:04.196Z,99315.41
2022-09-04T03:05:33.697Z,99323.19
2022-09-04T03:08:02.838Z,99321.41
2022-09-04T03:10:45.446Z,99322.28
2022-09-04T03:13:21.416Z,99325.78
2022-09-04T03:16:00.758Z,99331.00
2022-09-04T03:18:34.953Z,99314.81
2022-09-04T03:21:02.096Z,99332.75
2022-09-04T03:24:05.351Z,99332.81
2022-09-04T03:26:47.299Z,99325.22
2022-09-04T03:29:35.839Z,99335.47
2022-09-04T03:32:22.033Z,99331.94
2022-09-04T03:35:21.177Z,99317.53
2022-09-04T03:38:08.445Z,99334.69
2022-09-04T03:40:43.289Z,99333.03
2022-09-04T03:43:42.724Z,99335.47
2022-09-04T03:46:16.224Z,99332.25
2022-09-04T03:48:52.360Z,99337.28
2022-09-04T03:51:57.506Z,99330.03
2022-09-04T03:54:35.899Z,99331.63
2022-09-04T03:57:06.556Z,99329.75
2022-09-04T04:00:09.900Z,99339.94
2022-09-04T04:03:01.107Z,99341.91
2022-09-04T04:05:42.380Z,99341.81
2022-09-04T04:08:37.348Z,99344.47
2022-09-04T04:11:40.115Z,99345.34
2022-09-04T04:14:25.017Z,99339.25
2022-09-04T04:17:20.736Z,99352.28
2022-09-04T04:20:03.122Z,99342.09
2022-09-04T04:22:53.310Z,99357.50
2022-09-04T04:25:52.843Z,99352.41
2022-09-04T04:29:00.134Z,99359.34
2022-09-04T04:32:10.764Z,99367.28
2022-09-04T04:35:11.678Z,99383.72
2022-09-04T04:38:03.325Z,99380.19
2022-09-04T04:40:33.801Z,99379.31
2022-09-04T04:43:31.752Z,99357.97
2022-09-04T04:46:21.119Z,99377.59
2022-09-04T04:49:28.735Z,99388.00
2022-09-04T04:52:06.067Z,99389.69
2022-09-04T04:54:45.935Z,99389.75
2022-09-04T04:57:27.190Z,99395.72
2022-09-04T05:00:12.941Z,99400.94
2022-09-04T05:02:53.407Z,99402.63
2022-09-04T05:05:40.816Z,99404.34
2022-09-04T05:08:20.387Z,99404.34
2022-09-04T05:10:48.121Z,99407.81
2022-09-04T05:13:26.058Z,99418.19
2022-09-04T05:16:09.824Z,99419.06
2022-09-04T05:19:05.061Z,99422.53
2022-09-04T05:21:49.573Z,99423.56
2022-09-04T05:24:45.166Z,99421.88
2022-09-04T05:27:23.159Z,99443.41
2022-09-04T05:29:56.039Z,99440.78
2022-09-04T05:32:29.168Z,99446.91
2022-09-04T05:35:24.982Z,99456.50
2022-09-04T05:38:10.295Z,99464.25
2022-09-04T05:40:37.232Z,99468.56
2022-09-04T05:43:12.738Z,99458.31
2022-09-04T05:46:02.306Z,99480.69
2022-09-04T05:49:03.403Z,99485.91
2022-09-04T05:51:34.929Z,99492.03
2022-09-04T05:54:22.178Z,99490.22
2022-09-04T05:57:11.391Z,99504.16
2022-09-04T06:00:06.758Z,99502.47
2022-09-04T06:03:20.885Z,99506.81
2022-09-04T06:06:07.754Z,99516.38
2022-09-04T06:08:56.924Z,99532.81
2022-09-04T06:11:36.346Z,99537.13
2022-09-04T06:14:22.171Z,99528.53
2022-09-04T06:16:55.381Z,99531.03
2022-09-04T06:19:28.275Z,99528.53
2022-09-04T06:22:13.727Z,99518.38
2022-09-04T06:24:47.644Z,99538.84
2022-09-04T06:27:39.118Z,99538.91
2022-09-04T06:30:16.466Z,99527.06
2022-09-04T06:33:02.489Z,99546.72
2022-09-04T06:35:37.821Z,99529.53
2022-09-04T06:38:08.066Z,99557.94
2022-09-04T06:40:35.254Z,99557.03
2022-09-04T06:43:20.180Z,99562.19
2022-09-04T06:54:18.717Z,99563.50
2022-09-04T06:57:03.988Z,99542.16
2022-09-04T06:59:33.723Z,99574.44
2022-09-04T07:02:38.154Z,99574.44
2022-09-04T07:05:51.706Z,99567.53
2022-09-04T07:33:03.272Z,99594.19
2022-09-04T07:35:40.279Z,99567.53
2022-09-04T07:38:23.672Z,99579.53
2022-09-04T07:40:58.426Z,99576.16
2022-09-04T07:43:44.621Z,99614.63
2022-09-04T07:46:33.625Z,99615.44
2022-09-04T07:53:19.950Z,99629.41
2022-09-04T07:55:58.849Z,99600.09
2022-09-04T07:58:35.177Z,99631.66
2022-09-04T08:01:42.369Z,99609.56
2022-09-04T08:04:21.553Z,99633.31
2022-09-04T08:06:56.540Z,99641.97
2022-09-04T08:10:01.141Z,99620.69
2022-09-04T08:13:00.047Z,99641.97
2022-09-04T08:15:43.456Z,99618.13
2022-09-04T08:18:53.222Z,99620.06
2022-09-04T10:26:26.984Z,99667.38
2022-09-04T11:30:10.970Z,99669.78
2022-09-04T11:48:49.582Z,99669.09
2022-09-04T11:55:07.900Z,99671.47
2022-09-04T11:57:54.796Z,99677.06
2022-09-04T12:00:25.337Z,99662.91
2022-09-04T12:03:35.487Z,99673.66
2022-09-04T12:06:28.784Z,99643.81
2022-09-04T12:09:10.057Z,99646.94
2022-09-04T12:12:08.504Z,99674.09
2022-09-04T12:15:10.144Z,99679.13
2022-09-04T12:29:36.357Z,99678.19
2022-09-04T12:51:24.801Z,99667.41
2022-09-04T13:00:47.191Z,99647.72
2022-09-04T13:03:28.755Z,99680.88
2022-09-04T13:06:15.052Z,99656.09
2022-09-04T13:09:19.392Z,99686.03
2022-09-04T13:12:09.949Z,99669.88
2022-09-04T13:18:54.337Z,99665.56
2022-09-04T13:25:36.716Z,99661.66
2022-09-04T13:28:17.239Z,99665.06
2022-09-04T13:31:00.162Z,99667.38
2022-09-04T13:33:51.526Z,99670.84
2022-09-04T13:37:17.606Z,99679.44
2022-09-04T13:40:01.310Z,99680.28
2022-09-04T13:42:54.650Z,99681.84
2022-09-04T13:45:23.917Z,99655.19
2022-09-04T13:48:02.779Z,99670.81
2022-09-04T13:51:17.474Z,99679.69
2022-09-04T13:54:34.285Z,99643.09
2022-09-04T13:57:34.342Z,99646.47
2022-09-04T14:08:13.051Z,99633.19
2022-09-04T14:11:24.749Z,99674.38
2022-09-04T14:24:29.505Z,99671.66
2022-09-04T15:05:11.098Z,99660.44
2022-09-04T15:33:58.744Z,99622.19
2022-09-04T15:37:06.243Z,99615.41
2022-09-04T16:00:11.707Z,99644.19
